Time;durP1;ratioP1;P1;durP2;ratioP2;P2;SDS_P1;SDS_P2;PMS_P1;PMS_P2;Temp;Humidity;BMP_temperature;BMP_pressure;BME280_temperature;BME280_humidity;BME280_pressure;Samples;Min_cycle;Max_cycle;Signal;HPM_P1;HPM_P2
2023/07/12 00:00:50;;;;;;;5.78;5.00;;;18.30;99.90;;;;;;4978077;28;20498;-76
2023/07/12 00:03:17;;;;;;;6.90;4.85;;;18.10;99.90;;;;;;4981716;28;20045;-75
2023/07/12 00:05:44;;;;;;;4.55;4.10;;;18.00;99.90;;;;;;4999142;28;20454;-75
2023/07/12 00:08:22;;;;;;;8.57;4.13;;;18.00;99.90;;;;;;4984732;28;20042;-76
2023/07/12 00:10:49;;;;;;;6.45;3.70;;;17.80;99.90;;;;;;4983198;28;20050;-75
2023/07/12 00:13:16;;;;;;;5.63;3.50;;;18.50;99.90;;;;;;4999465;28;20089;-76
2023/07/12 00:15:43;;;;;;;5.28;4.68;;;18.30;99.90;;;;;;4983788;28;20152;-76
2023/07/12 00:18:14;;;;;;;6.60;4.40;;;17.90;99.90;;;;;;4979918;28;20046;-75
2023/07/12 00:20:41;;;;;;;5.97;4.95;;;17.80;99.90;;;;;;4979860;28;20121;-78
2023/07/12 00:23:11;;;;;;;5.78;4.80;;;17.70;99.90;;;;;;4978174;28;20185;-75
2023/07/12 00:25:37;;;;;;;8.07;4.35;;;17.70;99.90;;;;;;4960399;28;20046;-77
2023/07/12 00:28:09;;;;;;;8.77;5.47;;;18.40;99.90;;;;;;4977552;28;20035;-76
2023/07/12 00:30:35;;;;;;;8.65;4.95;;;17.70;99.90;;;;;;4980017;28;20042;-78
2023/07/12 00:33:04;;;;;;;10.18;5.75;;;17.90;99.90;;;;;;4982517;28;20536;-77
2023/07/12 00:35:32;;;;;;;11.50;6.63;;;17.80;99.90;;;;;;4982646;28;20526;-76
2023/07/12 00:38:00;;;;;;;8.13;5.60;;;17.70;99.90;;;;;;4980987;28;20053;-76
2023/07/12 00:40:35;;;;;;;10.75;6.18;;;17.80;99.90;;;;;;4983339;28;20073;-76
2023/07/12 00:43:11;;;;;;;8.00;6.32;;;17.60;99.90;;;;;;4982054;28;20534;-76
2023/07/12 00:45:37;;;;;;;10.07;6.55;;;17.60;99.90;;;;;;4982250;28;20055;-76
2023/07/12 00:48:10;;;;;;;11.55;7.40;;;17.90;99.90;;;;;;4977027;28;20058;-74
2023/07/12 00:50:35;;;;;;;10.40;6.63;;;18.30;99.90;;;;;;4977227;28;20042;-75
2023/07/12 00:53:02;;;;;;;9.05;6.20;;;17.80;99.90;;;;;;4977799;28;20999;-76
2023/07/12 00:55:55;;;;;;;10.02;7.03;;;18.30;99.90;;;;;;4977603;28;20042;-76
2023/07/12 00:58:22;;;;;;;11.25;6.80;;;17.80;99.90;;;;;;4976844;28;20050;-74
2023/07/12 01:00:48;;;;;;;8.95;6.55;;;18.00;99.90;;;;;;4977055;28;20555;-77
2023/07/12 01:03:17;;;;;;;12.57;7.40;;;18.20;99.90;;;;;;4975721;28;20055;-76
2023/07/12 01:05:45;;;;;;;12.05;7.15;;;18.20;99.90;;;;;;4975681;28;20745;-76
2023/07/12 01:08:13;;;;;;;11.07;6.97;;;18.00;99.90;;;;;;4977089;28;20038;-76
2023/07/12 01:10:38;;;;;;;11.63;7.78;;;17.60;99.90;;;;;;4975171;28;20133;-75
2023/07/12 01:13:08;;;;;;;8.40;6.78;;;17.60;99.90;;;;;;4976101;28;20557;-77
2023/07/12 01:15:35;;;;;;;9.73;8.30;;;17.90;99.90;;;;;;4992081;28;20084;-76
2023/07/12 01:18:03;;;;;;;9.93;7.40;;;17.90;99.90;;;;;;4976771;28;20074;-75
2023/07/12 01:20:38;;;;;;;9.80;7.15;;;17.60;99.90;;;;;;4976749;28;20042;-75
2023/07/12 01:23:04;;;;;;;13.75;8.85;;;18.00;99.90;;;;;;4975867;28;20125;-76
2023/07/12 01:25:40;;;;;;;11.73;8.48;;;17.40;99.90;;;;;;4976443;28;20046;-76
2023/07/12 01:28:06;;;;;;;10.68;8.10;;;18.10;99.90;;;;;;4976294;28;20044;-76
2023/07/12 01:30:32;;;;;;;11.93;7.15;;;17.40;99.90;;;;;;4976585;28;20121;-75
2023/07/12 01:32:58;;;;;;;10.75;8.00;;;17.80;99.90;;;;;;4991148;28;20585;-74
2023/07/12 01:35:24;;;;;;;9.38;7.30;;;18.10;99.90;;;;;;4976140;28;20137;-75
2023/07/12 01:37:50;;;;;;;10.48;7.05;;;18.00;99.90;;;;;;4990846;28;20058;-78
2023/07/12 01:40:16;;;;;;;11.98;6.57;;;17.90;99.90;;;;;;4976336;28;20564;-75
2023/07/12 01:42:42;;;;;;;8.52;6.15;;;17.40;99.90;;;;;;4975744;28;20116;-77
2023/07/12 01:45:08;;;;;;;9.93;7.13;;;17.50;99.90;;;;;;4975091;28;20113;-75
2023/07/12 01:47:33;;;;;;;10.75;6.28;;;17.80;99.90;;;;;;4990614;28;20155;-74
2023/07/12 01:49:59;;;;;;;10.93;6.35;;;17.30;99.90;;;;;;4976693;28;20118;-76
2023/07/12 01:52:25;;;;;;;11.70;6.68;;;17.70;99.90;;;;;;4976514;28;20038;-77
2023/07/12 01:54:51;;;;;;;8.80;6.93;;;17.60;99.90;;;;;;4976392;28;20082;-79
2023/07/12 01:57:17;;;;;;;10.10;6.78;;;17.90;99.90;;;;;;4990561;28;20041;-76
2023/07/12 01:59:43;;;;;;;12.02;7.30;;;17.30;99.90;;;;;;4975941;28;20349;-75
2023/07/12 02:02:08;;;;;;;12.40;6.80;;;17.70;99.90;;;;;;4975669;28;20086;-74
2023/07/12 02:04:34;;;;;;;11.50;7.05;;;17.60;99.90;;;;;;4976034;28;20159;-75
2023/07/12 02:07:03;;;;;;;9.65;6.50;;;17.30;99.90;;;;;;4975482;28;20046;-77
2023/07/12 02:09:34;;;;;;;10.43;6.45;;;17.50;99.90;;;;;;4974507;28;20371;-75
2023/07/12 02:12:00;;;;;;;10.05;6.18;;;17.20;99.90;;;;;;4974543;28;20145;-76
2023/07/12 02:14:26;;;;;;;11.52;6.47;;;17.10;99.90;;;;;;4974385;28;20098;-77
2023/07/12 02:16:52;;;;;;;11.95;6.47;;;17.80;99.90;;;;;;4975199;28;20041;-78
2023/07/12 02:19:18;;;;;;;10.38;6.18;;;17.10;99.90;;;;;;4975819;28;20553;-76
2023/07/12 02:21:43;;;;;;;15.05;7.25;;;17.10;99.90;;;;;;4974309;28;20050;-75
2023/07/12 02:24:09;;;;;;;10.63;6.75;;;17.40;99.90;;;;;;4975452;28;20749;-76
2023/07/12 02:26:35;;;;;;;9.60;5.97;;;17.00;99.90;;;;;;4975964;28;20402;-74
2023/07/12 02:29:01;;;;;;;6.95;5.00;;;17.00;99.90;;;;;;4974564;28;20050;-77
2023/07/12 02:31:31;;;;;;;8.77;4.78;;;17.30;99.90;;;;;;4990387;28;20053;-77
2023/07/12 02:33:56;;;;;;;9.43;5.13;;;17.10;99.90;;;;;;4989986;28;20432;-78
2023/07/12 02:36:22;;;;;;;7.25;5.88;;;17.50;99.90;;;;;;4990202;28;20156;-76
2023/07/12 02:38:48;;;;;;;10.00;5.50;;;17.30;99.90;;;;;;4977079;28;20047;-74
2023/07/12 02:41:14;;;;;;;9.55;5.47;;;17.10;99.90;;;;;;4980340;28;20066;-75
2023/07/12 02:43:40;;;;;;;10.95;4.95;;;17.40;99.90;;;;;;4994768;28;20042;-75
2023/07/12 02:46:06;;;;;;;10.00;5.13;;;17.50;99.90;;;;;;4977610;28;20109;-77
2023/07/12 02:48:32;;;;;;;9.93;5.13;;;16.90;99.90;;;;;;4993562;28;20690;-76
2023/07/12 02:50:58;;;;;;;8.52;5.82;;;16.90;99.90;;;;;;4979007;28;20473;-76
2023/07/12 02:53:24;;;;;;;9.85;5.38;;;16.90;99.90;;;;;;4977481;28;20533;-76
2023/07/12 02:55:50;;;;;;;12.90;6.43;;;17.00;99.90;;;;;;4994468;28;20446;-75
2023/07/12 02:58:18;;;;;;;13.80;6.20;;;17.40;99.90;;;;;;4979302;28;20542;-76
2023/07/12 03:00:43;;;;;;;11.27;5.38;;;16.90;99.90;;;;;;4979555;28;20683;-75
2023/07/12 03:03:09;;;;;;;11.30;6.07;;;17.40;99.90;;;;;;4979600;28;20143;-75
2023/07/12 03:05:36;;;;;;;10.23;6.00;;;17.40;99.90;;;;;;4962409;28;20050;-77
2023/07/12 03:08:02;;;;;;;11.50;5.70;;;17.30;99.90;;;;;;4978051;28;20047;-76
2023/07/12 03:10:29;;;;;;;13.80;6.00;;;17.40;99.90;;;;;;4993453;28;20048;-77
2023/07/12 03:12:54;;;;;;;12.10;5.20;;;16.90;99.90;;;;;;4993718;28;20497;-75
2023/07/12 03:15:21;;;;;;;14.10;5.80;;;17.20;99.90;;;;;;4993176;28;20038;-78
2023/07/12 03:17:47;;;;;;;11.43;5.78;;;17.20;99.90;;;;;;4976909;28;20050;-75
2023/07/12 03:20:12;;;;;;;12.73;6.38;;;16.90;99.90;;;;;;4993525;28;20042;-76
2023/07/12 03:22:38;;;;;;;11.07;5.90;;;16.80;99.90;;;;;;4976677;28;20391;-75
2023/07/12 03:25:04;;;;;;;14.18;6.30;;;17.30;99.90;;;;;;4977435;28;20061;-75
2023/07/12 03:27:30;;;;;;;16.17;6.90;;;16.80;99.90;;;;;;4978147;28;20042;-77
2023/07/12 03:29:57;;;;;;;11.70;6.47;;;16.80;99.90;;;;;;4960480;28;20065;-77
2023/07/12 03:32:24;;;;;;;16.83;7.57;;;17.20;99.90;;;;;;4977567;28;20402;-77
2023/07/12 03:34:50;;;;;;;15.10;6.57;;;16.90;99.90;;;;;;4977496;28;20831;-73
2023/07/12 03:37:16;;;;;;;12.88;7.07;;;17.10;99.90;;;;;;4977936;28;20046;-75
2023/07/12 03:39:41;;;;;;;17.63;8.00;;;16.80;99.90;;;;;;4993779;28;20057;-77
2023/07/12 03:42:07;;;;;;;18.50;7.82;;;16.80;99.90;;;;;;4995676;28;20054;-77
2023/07/12 03:44:33;;;;;;;14.80;7.40;;;17.20;99.90;;;;;;4962407;28;20551;-76
2023/07/12 03:46:59;;;;;;;22.55;6.90;;;17.20;99.90;;;;;;4980044;28;20106;-75
2023/07/12 03:49:24;;;;;;;15.63;7.25;;;17.10;99.90;;;;;;4976561;28;20038;-76
2023/07/12 03:51:50;;;;;;;18.88;6.90;;;16.90;99.90;;;;;;4977776;28;20042;-77
2023/07/12 03:54:16;;;;;;;12.95;6.40;;;16.80;99.90;;;;;;4976368;28;20104;-77
2023/07/12 03:56:41;;;;;;;16.45;7.15;;;17.10;99.90;;;;;;4977535;28;20050;-77
2023/07/12 03:59:08;;;;;;;16.60;6.72;;;16.70;99.90;;;;;;4977173;28;20894;-77
2023/07/12 04:01:35;;;;;;;18.73;7.07;;;17.00;99.90;;;;;;4975522;28;20074;-76
2023/07/12 04:04:01;;;;;;;20.33;7.47;;;17.10;99.90;;;;;;4977138;28;20046;-78
2023/07/12 04:06:27;;;;;;;12.88;5.97;;;16.90;99.90;;;;;;4992063;28;20045;-76
2023/07/12 04:08:52;;;;;;;15.05;6.32;;;17.10;99.90;;;;;;4975388;28;20053;-76
2023/07/12 04:11:27;;;;;;;19.67;7.10;;;16.90;99.90;;;;;;4976298;28;20050;-78
2023/07/12 04:13:53;;;;;;;19.70;7.10;;;16.80;99.90;;;;;;4976177;28;20038;-75
2023/07/12 04:16:19;;;;;;;18.10;6.30;;;17.00;99.90;;;;;;4975783;28;20082;-76
2023/07/12 04:18:45;;;;;;;17.05;6.30;;;17.10;99.90;;;;;;4974704;28;20085;-75
2023/07/12 04:21:11;;;;;;;19.58;6.07;;;17.20;99.90;;;;;;4976707;28;20046;-75
2023/07/12 04:23:37;;;;;;;14.93;5.85;;;17.10;99.90;;;;;;4976300;28;20042;-75
2023/07/12 04:26:05;;;;;;;17.15;5.72;;;17.10;99.90;;;;;;4977599;28;20399;-76
2023/07/12 04:28:35;;;;;;;20.33;6.65;;;17.10;99.90;;;;;;4977193;28;20038;-77
2023/07/12 04:31:03;;;;;;;17.85;6.28;;;16.70;99.90;;;;;;4976855;28;20387;-75
2023/07/12 04:33:29;;;;;;;16.48;5.88;;;16.80;99.90;;;;;;4977595;28;20034;-77
2023/07/12 04:35:55;;;;;;;21.55;7.13;;;16.80;99.90;;;;;;4959508;28;20454;-75
2023/07/12 04:38:21;;;;;;;20.10;7.30;;;16.90;99.90;;;;;;4976483;28;20126;-77
2023/07/12 04:40:54;;;;;;;20.88;6.97;;;16.80;99.90;;;;;;4975822;28;21155;-76
2023/07/12 04:43:20;;;;;;;16.70;6.53;;;16.80;99.90;;;;;;4977237;28;20046;-74
2023/07/12 04:45:48;;;;;;;12.70;5.63;;;16.70;99.90;;;;;;4977008;28;20557;-75
2023/07/12 04:48:14;;;;;;;19.98;6.07;;;16.90;99.90;;;;;;4976576;28;20056;-75
2023/07/12 04:50:39;;;;;;;17.75;5.75;;;16.90;99.90;;;;;;4976902;28;20046;-75
2023/07/12 04:53:05;;;;;;;19.02;5.80;;;16.90;99.90;;;;;;4991931;28;20386;-76
2023/07/12 04:55:31;;;;;;;32.45;16.70;;;17.20;99.90;;;;;;4977064;28;20045;-75
2023/07/12 04:57:57;;;;;;;66.38;42.70;;;17.30;99.90;;;;;;4975399;28;20462;-76
2023/07/12 05:00:26;;;;;;;99.72;72.32;;;17.20;99.90;;;;;;4958571;28;20034;-75
2023/07/12 05:02:53;;;;;;;203.52;150.05;;;17.20;99.90;;;;;;4975650;28;20349;-76
2023/07/12 05:05:20;;;;;;;218.73;161.10;;;17.20;99.90;;;;;;4975069;28;20097;-75
2023/07/12 05:07:46;;;;;;;215.77;157.20;;;17.10;99.90;;;;;;4975877;28;20051;-75
2023/07/12 05:10:12;;;;;;;113.03;74.45;;;17.20;99.90;;;;;;4961467;28;20552;-76
2023/07/12 05:12:39;;;;;;;53.75;27.17;;;17.30;99.90;;;;;;4980199;28;20126;-75
2023/07/12 05:15:06;;;;;;;30.75;13.93;;;17.00;99.90;;;;;;4961170;28;20038;-75
2023/07/12 05:17:32;;;;;;;23.98;9.35;;;17.10;99.90;;;;;;4975587;28;20079;-75
2023/07/12 05:19:58;;;;;;;23.75;7.97;;;17.00;99.90;;;;;;4974961;28;20057;-76
2023/07/12 05:22:24;;;;;;;20.58;6.28;;;17.10;99.90;;;;;;4958421;28;20044;-75
2023/07/12 05:24:50;;;;;;;26.98;7.18;;;17.00;99.90;;;;;;4974115;28;20058;-75
2023/07/12 05:27:16;;;;;;;14.32;5.93;;;17.20;99.90;;;;;;4974950;28;20042;-75
2023/07/12 05:29:41;;;;;;;19.27;6.28;;;17.50;99.90;;;;;;4957556;28;20434;-75
2023/07/12 05:32:07;;;;;;;16.27;5.85;;;17.40;99.90;;;;;;4989519;28;20638;-75
2023/07/12 05:34:33;;;;;;;16.30;5.40;;;17.70;99.90;;;;;;4973584;28;20046;-76
2023/07/12 05:36:59;;;;;;;14.43;5.18;;;17.80;99.90;;;;;;4989314;28;20463;-77
2023/07/12 05:39:25;;;;;;;14.00;5.38;;;17.90;99.90;;;;;;4973046;28;20133;-75
2023/07/12 05:41:51;;;;;;;20.50;5.40;;;17.60;99.90;;;;;;4974958;28;20042;-79
2023/07/12 05:44:16;;;;;;;14.23;4.95;;;17.90;99.90;;;;;;4975911;28;20169;-73
2023/07/12 05:46:42;;;;;;;12.13;4.88;;;17.80;99.90;;;;;;4973682;28;20054;-76
2023/07/12 05:49:08;;;;;;;13.25;5.10;;;17.70;99.90;;;;;;4974738;28;20059;-74
2023/07/12 05:51:34;;;;;;;18.27;4.90;;;17.90;99.90;;;;;;4958200;28;20042;-75
2023/07/12 05:54:00;;;;;;;14.35;4.00;;;17.80;99.90;;;;;;4974163;28;20489;-76
2023/07/12 05:56:25;;;;;;;14.50;4.63;;;17.80;99.90;;;;;;4975041;28;20046;-75
2023/07/12 05:58:51;;;;;;;15.23;5.07;;;18.00;99.90;;;;;;4973973;28;20085;-75
2023/07/12 06:01:17;;;;;;;15.05;4.70;;;17.80;99.90;;;;;;4974666;28;20537;-76
2023/07/12 06:03:43;;;;;;;16.73;4.20;;;17.80;99.90;;;;;;4975575;28;20437;-74
2023/07/12 06:06:09;;;;;;;17.00;4.30;;;18.00;99.90;;;;;;4976094;28;20078;-75
2023/07/12 06:08:35;;;;;;;11.48;3.75;;;18.40;99.90;;;;;;4976140;28;20046;-74
2023/07/12 06:11:01;;;;;;;14.48;4.20;;;18.30;99.90;;;;;;4974653;28;20117;-76
2023/07/12 06:13:27;;;;;;;16.20;4.57;;;18.50;99.90;;;;;;4991112;28;20587;-76
2023/07/12 06:15:53;;;;;;;14.75;4.38;;;18.60;99.90;;;;;;4978300;28;20053;-74
2023/07/12 06:18:19;;;;;;;13.05;4.35;;;18.40;99.90;;;;;;4980169;28;20081;-74
2023/07/12 06:20:45;;;;;;;15.85;4.20;;;18.40;99.90;;;;;;4981676;28;20101;-75
2023/07/12 06:23:11;;;;;;;15.27;4.30;;;18.20;99.90;;;;;;4980659;28;20057;-74
2023/07/12 06:25:38;;;;;;;15.25;4.38;;;18.10;99.90;;;;;;4962912;28;20057;-75
2023/07/12 06:28:04;;;;;;;16.40;4.10;;;18.00;99.90;;;;;;4980474;28;20050;-74
2023/07/12 06:30:30;;;;;;;14.52;4.28;;;18.20;99.90;;;;;;4980863;28;20043;-75
2023/07/12 06:32:56;;;;;;;19.48;4.72;;;18.20;99.90;;;;;;4982633;28;20065;-75
2023/07/12 06:35:21;;;;;;;14.73;3.92;;;18.10;99.90;;;;;;4996872;28;20046;-76
2023/07/12 06:37:47;;;;;;;14.68;4.47;;;17.90;99.90;;;;;;4979796;28;20128;-77
2023/07/12 06:40:12;;;;;;;16.63;4.40;;;18.10;99.90;;;;;;4979706;28;20053;-77
2023/07/12 06:42:38;;;;;;;13.52;3.90;;;18.20;99.90;;;;;;4979020;28;20259;-75
2023/07/12 06:45:04;;;;;;;14.32;4.70;;;18.80;99.90;;;;;;4979069;28;20046;-74
2023/07/12 06:47:32;;;;;;;14.55;3.80;;;18.90;99.90;;;;;;4978465;28;20533;-74
2023/07/12 06:49:58;;;;;;;10.02;3.40;;;19.30;99.90;;;;;;4993660;28;20050;-77
2023/07/12 06:52:24;;;;;;;12.45;3.22;;;19.50;99.90;;;;;;4977115;28;20053;-75
2023/07/12 06:54:49;;;;;;;12.00;3.38;;;19.90;99.90;;;;;;4993387;28;20042;-75
2023/07/12 06:57:15;;;;;;;15.75;3.42;;;19.80;99.90;;;;;;4993186;28;20113;-75
2023/07/12 06:59:41;;;;;;;13.00;3.42;;;20.00;99.90;;;;;;4961456;28;20138;-75
2023/07/12 07:02:10;;;;;;;14.27;3.67;;;19.80;99.90;;;;;;4977622;28;20039;-75
2023/07/12 07:04:35;;;;;;;13.85;4.10;;;19.60;99.90;;;;;;4977142;28;20049;-74
2023/07/12 07:07:01;;;;;;;14.88;2.97;;;19.50;99.90;;;;;;4977738;28;20042;-74
2023/07/12 07:09:27;;;;;;;13.50;3.70;;;19.60;99.90;;;;;;4977606;28;20046;-76
2023/07/12 07:11:52;;;;;;;12.18;3.65;;;19.70;99.90;;;;;;4976622;28;20429;-76
2023/07/12 07:14:18;;;;;;;17.42;3.58;;;19.60;99.90;;;;;;4977970;28;21020;-76
2023/07/12 07:16:46;;;;;;;12.65;3.20;;;19.30;99.90;;;;;;4977875;28;20085;-75
2023/07/12 07:19:12;;;;;;;13.90;3.00;;;19.60;99.90;;;;;;4992582;28;20467;-76
2023/07/12 07:21:38;;;;;;;13.20;2.97;;;19.70;99.90;;;;;;4976885;28;20151;-75
2023/07/12 07:24:04;;;;;;;11.90;2.92;;;19.70;99.90;;;;;;4976623;28;20112;-76
2023/07/12 07:26:30;;;;;;;8.85;2.80;;;19.80;99.90;;;;;;4976603;28;20686;-72
2023/07/12 07:28:56;;;;;;;11.57;3.00;;;20.10;99.90;;;;;;4975694;28;20092;-74
2023/07/12 07:31:21;;;;;;;11.68;2.70;;;20.40;99.90;;;;;;4960066;28;20100;-75
2023/07/12 07:33:50;;;;;;;11.80;2.70;;;20.50;99.90;;;;;;4977168;28;20088;-75
2023/07/12 07:36:15;;;;;;;8.07;2.42;;;20.40;99.90;;;;;;4975680;28;20789;-75
2023/07/12 07:38:41;;;;;;;9.15;2.33;;;20.40;99.90;;;;;;4975530;28;20122;-73
2023/07/12 07:41:12;;;;;;;10.18;2.63;;;20.40;99.90;;;;;;4976794;28;20122;-75
2023/07/12 07:43:39;;;;;;;13.15;2.80;;;20.60;99.90;;;;;;4979614;28;20522;-75
2023/07/12 07:46:07;;;;;;;9.38;2.13;;;20.70;99.90;;;;;;4979009;28;20148;-74
2023/07/12 07:48:33;;;;;;;13.68;2.33;;;20.80;99.90;;;;;;4979607;28;20054;-74
2023/07/12 07:50:58;;;;;;;9.70;2.13;;;21.00;99.90;;;;;;4979412;28;20073;-74
2023/07/12 07:53:24;;;;;;;10.75;2.05;;;20.80;47.30;;;;;;4977749;28;20567;-76
2023/07/12 07:55:50;;;;;;;9.48;1.80;;;20.90;99.90;;;;;;4977242;28;20682;-74
2023/07/12 07:58:16;;;;;;;12.65;1.98;;;20.60;89.00;;;;;;4975539;28;20068;-76
2023/07/12 08:00:42;;;;;;;12.23;1.90;;;20.40;66.00;;;;;;4976899;28;20056;-75
2023/07/12 08:03:09;;;;;;;7.90;1.85;;;20.00;40.00;;;;;;4991582;28;20089;-75
2023/07/12 08:05:35;;;;;;;11.75;2.38;;;19.90;99.90;;;;;;4974786;28;20034;-74
2023/07/12 08:08:01;;;;;;;8.90;2.42;;;20.00;99.90;;;;;;4974911;28;20042;-74
2023/07/12 08:10:28;;;;;;;11.88;2.35;;;20.40;99.90;;;;;;4974193;28;20564;-76
2023/07/12 08:12:56;;;;;;;13.27;2.50;;;20.60;93.60;;;;;;4974679;28;20038;-78
2023/07/12 08:15:23;;;;;;;14.32;2.47;;;20.60;54.70;;;;;;4974660;28;20057;-77
2023/07/12 08:17:49;;;;;;;8.65;1.83;;;20.40;97.20;;;;;;4975281;28;20172;-74
2023/07/12 08:20:14;;;;;;;13.02;2.97;;;20.20;33.00;;;;;;4975912;28;20160;-76
2023/07/12 08:22:40;;;;;;;11.63;2.45;;;20.10;99.90;;;;;;4974553;28;20181;-73
2023/07/12 08:25:08;;;;;;;11.50;2.03;;;20.00;99.90;;;;;;4975896;28;20053;-74
2023/07/12 08:27:34;;;;;;;17.80;3.08;;;19.80;99.00;;;;;;4976023;28;20041;-77
2023/07/12 08:30:00;;;;;;;20.17;3.60;;;19.50;99.90;;;;;;4990227;28;20497;-75
2023/07/12 08:32:32;;;;;;;13.05;3.58;;;19.00;99.90;;;;;;4975571;28;20350;-75
2023/07/12 08:34:58;;;;;;;14.85;2.53;;;18.40;99.90;;;;;;4973747;28;20608;-73
2023/07/12 08:37:25;;;;;;;14.88;3.42;;;17.80;99.90;;;;;;4974593;28;20749;-74
2023/07/12 08:39:51;;;;;;;17.85;3.78;;;17.50;99.90;;;;;;4957746;28;20147;-75
2023/07/12 08:42:23;;;;;;;17.52;4.88;;;17.50;99.90;;;;;;4957794;28;20269;-76
2023/07/12 08:44:50;;;;;;;15.02;4.72;;;17.50;99.90;;;;;;4990670;28;20482;-74
2023/07/12 08:47:24;;;;;;;14.45;4.15;;;17.50;99.90;;;;;;4975395;28;20344;-76
2023/07/12 08:49:50;;;;;;;15.13;4.30;;;17.70;99.90;;;;;;4977385;28;20294;-75
2023/07/12 08:52:19;;;;;;;10.68;3.97;;;18.10;99.90;;;;;;4976825;28;20145;-76
2023/07/12 08:54:44;;;;;;;15.65;3.85;;;18.50;99.90;;;;;;4977101;28;20041;-75
2023/07/12 08:57:15;;;;;;;16.08;4.40;;;18.60;99.90;;;;;;4974567;28;20051;-73
2023/07/12 08:59:47;;;;;;;14.25;3.38;;;19.20;99.90;;;;;;4974057;28;20505;-73
2023/07/12 09:02:24;;;;;;;8.80;1.75;;;19.70;99.90;;;;;;4974780;28;20073;-76
2023/07/12 09:04:52;;;;;;;5.40;1.90;;;19.80;99.90;;;;;;4973577;28;20073;-73
2023/07/12 09:07:30;;;;;;;6.70;1.55;;;19.90;99.90;;;;;;4957751;28;20107;-74
2023/07/12 09:09:58;;;;;;;7.00;1.83;;;19.70;99.90;;;;;;4974340;28;20600;-76
2023/07/12 09:12:32;;;;;;;8.38;1.20;;;19.50;99.90;;;;;;4973347;28;20568;-76
2023/07/12 09:15:10;;;;;;;7.35;1.20;;;19.60;99.90;;;;;;4990048;28;20502;-75
2023/07/12 09:17:44;;;;;;;5.95;1.40;;;19.80;99.90;;;;;;4973315;28;20050;-74
2023/07/12 09:20:26;;;;;;;9.23;1.35;;;19.90;99.90;;;;;;4974681;28;20304;-75
2023/07/12 09:22:53;;;;;;;7.72;1.20;;;20.10;99.90;;;;;;4974034;28;20053;-75
2023/07/12 09:25:26;;;;;;;5.28;0.90;;;19.90;99.90;;;;;;4975550;28;20215;-74
2023/07/12 09:27:52;;;;;;;6.57;1.13;;;20.00;99.90;;;;;;4975261;28;20038;-74
2023/07/12 09:30:25;;;;;;;6.05;1.23;;;19.90;99.90;;;;;;4975876;28;20427;-76
2023/07/12 09:32:57;;;;;;;7.82;1.20;;;19.90;99.90;;;;;;4976931;28;20081;-74
2023/07/12 09:35:44;;;;;;;9.35;1.30;;;19.70;99.90;;;;;;4990394;28;20894;-73
2023/07/12 09:38:16;;;;;;;8.55;1.45;;;19.60;99.90;;;;;;4973578;28;20159;-75
2023/07/12 09:40:48;;;;;;;8.15;1.85;;;19.80;99.90;;;;;;4974414;28;20552;-74
2023/07/12 09:43:26;;;;;;;7.13;1.55;;;19.90;99.90;;;;;;4974861;28;20100;-76
2023/07/12 09:46:01;;;;;;;8.82;1.67;;;20.20;99.90;;;;;;4975303;28;20035;-74
2023/07/12 09:48:55;;;;;;;7.55;1.50;;;20.30;99.90;;;;;;4959033;28;20410;-76
2023/07/12 09:51:33;;;;;;;6.97;1.30;;;20.70;99.90;;;;;;4977105;28;20138;-75
2023/07/12 09:54:18;;;;;;;8.07;1.05;;;21.50;99.90;;;;;;4974735;28;20042;-76
2023/07/12 09:57:09;;;;;;;8.32;1.08;;;22.00;99.90;;;;;;4975036;28;20054;-75
2023/07/12 09:59:40;;;;;;;6.10;0.98;;;22.20;99.90;;;;;;4974504;28;20057;-76
2023/07/12 10:02:19;;;;;;;4.25;0.80;;;22.40;99.90;;;;;;4974625;28;20663;-74
2023/07/12 10:05:03;;;;;;;5.85;0.82;;;22.10;99.90;;;;;;4976037;28;20050;-76
2023/07/12 10:07:34;;;;;;;8.48;0.98;;;21.60;99.90;;;;;;4975317;28;20687;-74
2023/07/12 10:10:00;;;;;;;5.05;0.85;;;21.30;99.90;;;;;;4975956;28;20092;-76
2023/07/12 10:12:43;;;;;;;5.55;0.80;;;21.30;99.90;;;;;;4977896;28;20773;-75
2023/07/12 10:15:13;;;;;;;4.53;0.90;;;21.10;99.90;;;;;;4975728;28;20038;-76
2023/07/12 10:17:42;;;;;;;5.28;0.65;;;20.70;99.90;;;;;;4977466;28;20046;-76
2023/07/12 10:20:23;;;;;;;5.70;1.08;;;20.40;99.90;;;;;;4974152;28;20506;-76
2023/07/12 10:22:50;;;;;;;4.40;0.90;;;20.60;99.90;;;;;;4973569;28;20659;-73
2023/07/12 10:25:26;;;;;;;4.78;0.80;;;21.30;99.90;;;;;;4972162;28;20390;-76
2023/07/12 10:28:02;;;;;;;3.75;0.70;;;22.20;99.90;;;;;;4988846;28;20046;-76
2023/07/12 10:30:30;;;;;;;4.57;0.70;;;22.80;99.90;;;;;;4974167;28;20121;-76
2023/07/12 10:33:20;;;;;;;5.90;0.90;;;22.80;99.90;;;;;;4973264;28;20054;-77
2023/07/12 10:35:54;;;;;;;5.70;0.98;;;22.20;99.90;;;;;;4974773;28;20080;-75
2023/07/12 10:38:26;;;;;;;4.15;0.57;;;22.10;99.90;;;;;;4975096;28;20506;-77
2023/07/12 10:41:19;;;;;;;4.75;0.75;;;22.10;99.90;;;;;;4974571;28;20034;-75
2023/07/12 10:43:48;;;;;;;4.05;0.68;;;22.50;99.90;;;;;;4988947;28;20043;-78
2023/07/12 10:46:32;;;;;;;4.25;0.40;;;22.40;99.90;;;;;;4973246;28;20794;-74
2023/07/12 10:49:02;;;;;;;6.35;0.50;;;22.00;99.90;;;;;;4973042;28;20806;-75
2023/07/12 10:51:40;;;;;;;4.15;0.73;;;21.60;99.90;;;;;;4972818;28;20140;-74
2023/07/12 10:54:31;;;;;;;4.55;0.70;;;21.40;99.90;;;;;;4989667;28;20054;-76
2023/07/12 10:57:19;;;;;;;4.93;0.60;;;21.20;99.90;;;;;;4974538;28;20030;-71
2023/07/12 10:59:45;;;;;;;2.40;0.40;;;21.00;99.90;;;;;;4976491;28;20046;-76
2023/07/12 11:02:25;;;;;;;3.25;0.60;;;21.50;99.90;;;;;;4977459;28;20030;-73
2023/07/12 11:04:51;;;;;;;4.45;0.70;;;22.10;99.90;;;;;;4978045;28;20629;-75
2023/07/12 11:07:17;;;;;;;2.78;0.60;;;22.50;95.40;;;;;;4976208;28;20078;-76
2023/07/12 11:09:51;;;;;;;2.47;0.50;;;22.80;79.70;;;;;;4976543;28;20080;-76
2023/07/12 11:12:29;;;;;;;4.50;0.70;;;23.00;45.70;;;;;;4976724;28;20050;-74
2023/07/12 11:15:04;;;;;;;2.42;0.40;;;22.80;1.00;;;;;;4976375;28;20061;-75
2023/07/12 11:18:11;;;;;;;2.33;0.50;;;23.10;1.00;;;;;;4977763;28;20431;-75
2023/07/12 11:20:58;;;;;;;3.38;0.60;;;23.00;1.00;;;;;;4978155;28;20100;-78
2023/07/12 11:23:28;;;;;;;2.92;0.70;;;23.00;1.00;;;;;;4960297;28;20526;-75
2023/07/12 11:26:01;;;;;;;3.50;0.38;;;23.30;1.00;;;;;;4977854;28;20137;-75
2023/07/12 11:28:39;;;;;;;2.83;0.30;;;23.80;42.50;;;;;;4993301;28;20491;-76
2023/07/12 11:31:26;;;;;;;3.53;0.40;;;23.50;99.90;;;;;;4992810;28;20041;-75
2023/07/12 11:34:10;;;;;;;2.97;0.30;;;23.00;99.90;;;;;;4976079;28;20103;-75
2023/07/12 11:36:36;;;;;;;2.53;0.40;;;22.50;99.90;;;;;;4977835;28;20046;-75
2023/07/12 11:39:09;;;;;;;1.80;0.20;;;22.60;99.90;;;;;;4992798;28;20050;-75
2023/07/12 11:41:35;;;;;;;2.10;0.20;;;22.50;99.90;;;;;;4977335;28;20138;-73
2023/07/12 11:44:06;;;;;;;2.55;0.32;;;22.20;99.90;;;;;;4975873;28;20038;-78
2023/07/12 11:46:37;;;;;;;1.88;0.30;;;22.30;99.90;;;;;;4977486;28;20101;-74
2023/07/12 11:49:15;;;;;;;1.58;0.45;;;22.70;99.90;;;;;;4992047;28;20392;-78
2023/07/12 11:51:47;;;;;;;2.58;0.20;;;23.30;99.90;;;;;;4992688;28;20053;-76
2023/07/12 11:54:25;;;;;;;1.10;0.20;;;23.00;99.90;;;;;;4976063;28;20042;-75
2023/07/12 11:56:55;;;;;;;2.72;0.30;;;23.60;99.90;;;;;;4977587;28;20049;-73
2023/07/12 11:59:24;;;;;;;2.42;0.40;;;24.00;99.90;;;;;;4977880;28;20038;-75
2023/07/12 12:01:52;;;;;;;2.17;0.20;;;24.40;99.90;;;;;;4977953;28;20066;-76
2023/07/12 12:04:27;;;;;;;1.88;0.28;;;23.80;99.90;;;;;;4978848;28;20487;-76
2023/07/12 12:07:03;;;;;;;2.80;0.20;;;23.50;99.90;;;;;;4960131;28;20049;-75
2023/07/12 12:09:32;;;;;;;4.18;0.30;;;23.80;99.90;;;;;;4979247;28;20038;-76
2023/07/12 12:11:59;;;;;;;2.15;0.30;;;24.00;99.90;;;;;;4976778;28;20340;-76
2023/07/12 12:14:29;;;;;;;2.45;0.25;;;24.60;99.90;;;;;;4976989;28;20039;-77
2023/07/12 12:16:57;;;;;;;3.72;0.30;;;24.70;99.90;;;;;;4975929;28;20030;-75
2023/07/12 12:19:30;;;;;;;3.08;0.25;;;25.00;99.90;;;;;;4977063;28;20470;-74
2023/07/12 12:22:11;;;;;;;1.15;0.20;;;24.90;99.90;;;;;;4975722;28;20049;-76
2023/07/12 12:24:48;;;;;;;2.13;0.30;;;24.40;87.40;;;;;;4975584;28;20046;-77
2023/07/12 12:27:19;;;;;;;2.80;0.30;;;24.10;88.70;;;;;;4992610;28;20977;-74
2023/07/12 12:29:45;;;;;;;1.90;0.20;;;24.00;94.40;;;;;;4981150;28;20070;-74
2023/07/12 12:32:16;;;;;;;1.45;0.20;;;24.20;69.90;;;;;;4977929;28;20199;-76
2023/07/12 12:34:51;;;;;;;2.33;0.20;;;23.90;88.40;;;;;;4992882;28;20704;-79
2023/07/12 12:37:22;;;;;;;1.70;0.20;;;23.80;97.20;;;;;;4992390;28;20081;-75
2023/07/12 12:40:06;;;;;;;1.25;0.20;;;24.00;97.30;;;;;;4991637;28;20594;-75
2023/07/12 12:42:32;;;;;;;2.78;0.30;;;24.20;96.20;;;;;;4990535;28;20054;-74
2023/07/12 12:44:58;;;;;;;2.10;0.40;;;24.40;90.40;;;;;;4975822;28;20361;-76
2023/07/12 12:47:32;;;;;;;2.25;0.20;;;24.40;45.30;;;;;;4959284;28;20417;-79
2023/07/12 12:49:59;;;;;;;1.98;0.20;;;24.40;23.80;;;;;;4994635;28;20429;-77